Yardley, Pennsylvania
Current Conditions -  °F | °C
As of 12:53 PM on Thursday 18 Dec 2014 (Local Time) from KTTN Reporting Station
Overcast Overcast  
Wind Chill: 32°   Ceiling: 3900
Heat Index: 39°   Visibility: 10mi
Dew Point: 21°   Wind: 10mph
Humidity: 49%   Direction: 290°WNW
Pressure: 30"   Gusts: 18mph
Location:  40.1994°N, 74.8145°W
Report Text: KTTN 181753Z 29009G16KT 10SM OVC039 04/M06 A3000 RMK AO2 SLP154 T00391061 10039 20000 58017
Loading
Personal Weather Stations






























Interactive Weather Map New forecast layout! Learn more

10-Day Weather Forecast

Advertisements
Track Severe Weather on mobile